createdAt,value
2018-09-28T00:01:19.886Z,2.83
2018-09-28T00:03:49.142Z,4.23
2018-09-28T00:06:18.505Z,3.27
2018-09-28T00:08:47.737Z,4.60
2018-09-28T00:11:17.443Z,4.70
2018-09-28T00:13:46.772Z,5.27
2018-09-28T00:16:16.523Z,3.57
2018-09-28T00:18:45.407Z,4.23
2018-09-28T00:21:14.040Z,4.53
2018-09-28T00:23:43.609Z,2.93
2018-09-28T00:26:12.193Z,7.03
2018-09-28T00:28:40.824Z,3.83
2018-09-28T00:31:09.377Z,7.50
2018-09-28T00:33:38.180Z,3.70
2018-09-28T00:36:07.553Z,4.10
2018-09-28T00:38:36.476Z,2.80
2018-09-28T00:41:05.362Z,4.07
2018-09-28T00:43:34.206Z,3.80
2018-09-28T00:46:02.803Z,4.10
2018-09-28T00:48:31.733Z,3.03
2018-09-28T00:51:00.376Z,3.97
2018-09-28T00:53:29.030Z,5.53
2018-09-28T00:55:57.627Z,6.53
2018-09-28T00:58:26.415Z,3.43
2018-09-28T01:00:55.297Z,5.27
2018-09-28T01:03:23.962Z,4.07
2018-09-28T01:05:53.010Z,3.20
2018-09-28T01:08:22.934Z,3.10
2018-09-28T01:10:51.774Z,2.50
2018-09-28T01:13:23.072Z,4.30
2018-09-28T01:15:52.325Z,3.57
2018-09-28T01:18:21.817Z,3.70
2018-09-28T01:20:50.626Z,8.97
2018-09-28T01:23:19.697Z,4.67
2018-09-28T01:25:48.799Z,6.50
2018-09-28T01:28:17.834Z,6.17
2018-09-28T01:30:50.447Z,4.53
2018-09-28T01:33:20.411Z,6.27
2018-09-28T01:35:51.156Z,3.30
2018-09-28T01:38:22.945Z,8.90
2018-09-28T01:40:53.188Z,7.70
2018-09-28T01:43:23.281Z,4.60
2018-09-28T01:45:53.197Z,4.43
2018-09-28T01:48:22.763Z,5.07
2018-09-28T01:50:52.994Z,6.33
2018-09-28T01:53:22.395Z,5.27
2018-09-28T01:55:52.489Z,6.33
2018-09-28T01:58:22.272Z,5.60
2018-09-28T02:00:51.197Z,4.90
2018-09-28T02:03:19.708Z,7.17
2018-09-28T02:05:51.201Z,7.27
2018-09-28T02:08:21.733Z,5.80
2018-09-28T02:10:52.290Z,4.83
2018-09-28T02:13:21.483Z,5.63
2018-09-28T02:15:50.126Z,8.23
2018-09-28T02:18:18.999Z,11.47
2018-09-28T02:20:47.670Z,8.00
2018-09-28T02:23:16.533Z,11.67
2018-09-28T02:25:45.688Z,11.00
2018-09-28T02:28:14.279Z,10.10
2018-09-28T02:30:43.424Z,9.27
2018-09-28T02:33:12.436Z,10.23
2018-09-28T02:35:41.005Z,8.57
2018-09-28T02:38:09.603Z,10.50
2018-09-28T02:40:38.524Z,10.73
2018-09-28T02:43:07.263Z,13.47
2018-09-28T02:45:35.933Z,11.93
2018-09-28T02:48:04.556Z,12.50
2018-09-28T02:50:33.334Z,10.53
2018-09-28T02:53:02.434Z,12.10
2018-09-28T02:55:31.444Z,12.47
2018-09-28T02:58:00.208Z,10.37
2018-09-28T03:00:28.790Z,9.77
2018-09-28T03:02:58.437Z,11.10
2018-09-28T03:05:26.995Z,8.37
2018-09-28T03:07:55.597Z,10.67
2018-09-28T03:10:24.598Z,10.50
2018-09-28T03:12:53.212Z,13.30
2018-09-28T03:15:22.005Z,12.03
2018-09-28T03:17:50.906Z,12.83
2018-09-28T03:20:19.482Z,11.37
2018-09-28T03:22:48.106Z,11.73
2018-09-28T03:25:16.758Z,11.40
2018-09-28T03:27:45.397Z,12.77
2018-09-28T03:30:13.965Z,15.30
2018-09-28T03:32:42.619Z,16.50
2018-09-28T03:35:11.540Z,11.43
2018-09-28T03:37:40.490Z,14.30
2018-09-28T03:40:09.070Z,11.40
2018-09-28T03:42:37.792Z,12.37
2018-09-28T03:45:06.420Z,11.83
2018-09-28T03:47:35.631Z,14.43
2018-09-28T03:50:04.997Z,12.70
2018-09-28T03:52:33.631Z,14.57
2018-09-28T03:55:02.216Z,13.17
2018-09-28T03:57:30.945Z,13.67
2018-09-28T03:59:59.704Z,14.20
2018-09-28T04:02:28.767Z,15.70
2018-09-28T04:04:57.455Z,16.13
2018-09-28T04:07:26.398Z,14.03
2018-09-28T04:09:55.349Z,14.63
2018-09-28T04:12:25.173Z,15.87
2018-09-28T04:14:54.297Z,13.40
2018-09-28T04:17:23.009Z,15.63
2018-09-28T04:19:52.688Z,15.87
2018-09-28T04:22:21.467Z,16.27
2018-09-28T04:24:50.123Z,21.70
2018-09-28T04:27:18.713Z,23.57
2018-09-28T04:29:47.605Z,22.53
2018-09-28T04:32:16.169Z,23.63
2018-09-28T04:34:44.890Z,25.60
2018-09-28T04:37:13.555Z,28.27
2018-09-28T04:39:48.760Z,30.47
2018-09-28T04:42:17.761Z,32.80
2018-09-28T04:44:46.312Z,29.93
2018-09-28T04:47:15.624Z,27.67
2018-09-28T04:49:44.165Z,26.90
2018-09-28T04:52:12.988Z,26.03
2018-09-28T04:54:42.628Z,22.60
2018-09-28T04:57:11.674Z,25.20
2018-09-28T04:59:41.889Z,29.30
2018-09-28T05:02:10.541Z,25.07
2018-09-28T05:04:41.431Z,25.23
2018-09-28T05:07:10.377Z,24.77
2018-09-28T05:09:40.032Z,28.77
2018-09-28T05:12:09.113Z,25.17
2018-09-28T05:14:38.591Z,29.10
2018-09-28T05:17:07.899Z,24.17
2018-09-28T05:19:36.679Z,28.80
2018-09-28T05:22:06.285Z,27.50
2018-09-28T05:24:34.871Z,27.03
2018-09-28T05:27:03.577Z,27.77
2018-09-28T05:29:32.812Z,24.60
2018-09-28T05:32:01.543Z,27.00
2018-09-28T05:34:30.197Z,28.20
2018-09-28T05:36:58.734Z,25.13
2018-09-28T05:39:28.107Z,24.07
2018-09-28T05:41:57.403Z,24.47
2018-09-28T05:44:26.071Z,25.00
2018-09-28T05:46:55.098Z,21.33
2018-09-28T05:49:23.621Z,22.60
2018-09-28T05:51:53.101Z,24.77
2018-09-28T05:54:21.718Z,26.57
2018-09-28T05:56:50.298Z,26.83
2018-09-28T05:59:24.374Z,26.20
2018-09-28T06:01:58.629Z,28.97
2018-09-28T06:04:32.661Z,28.93
2018-09-28T06:07:01.244Z,24.70
2018-09-28T06:09:29.859Z,27.60
2018-09-28T06:11:58.539Z,25.97
2018-09-28T06:14:27.359Z,24.70
2018-09-28T06:16:56.446Z,24.07
2018-09-28T06:19:25.428Z,30.07
2018-09-28T06:21:55.043Z,31.20
2018-09-28T06:24:23.765Z,27.40
2018-09-28T06:26:52.540Z,27.47
2018-09-28T06:29:21.415Z,29.80
2018-09-28T06:31:50.006Z,29.83
2018-09-28T06:34:18.703Z,30.90
2018-09-28T06:36:47.782Z,28.57
2018-09-28T06:39:16.334Z,22.37
2018-09-28T06:41:44.935Z,21.23
2018-09-28T06:44:13.465Z,21.97
2018-09-28T06:46:42.243Z,27.20
2018-09-28T06:49:10.793Z,25.23
2018-09-28T06:51:39.555Z,26.67
2018-09-28T06:54:08.079Z,28.33
2018-09-28T06:56:36.945Z,30.00
2018-09-28T06:59:05.751Z,26.73
2018-09-28T07:01:34.457Z,29.27
2018-09-28T07:04:03.112Z,28.43
2018-09-28T07:06:31.807Z,30.87
2018-09-28T07:09:00.375Z,32.87
2018-09-28T07:11:29.432Z,37.50
2018-09-28T07:13:58.589Z,33.17
2018-09-28T07:16:27.667Z,39.43
2018-09-28T07:18:56.191Z,35.80
2018-09-28T07:21:24.974Z,40.73
2018-09-28T07:23:53.593Z,41.83
2018-09-28T07:26:22.179Z,45.27
2018-09-28T07:28:50.731Z,43.30
2018-09-28T07:31:19.293Z,50.63
2018-09-28T07:33:48.014Z,52.00
2018-09-28T07:36:16.616Z,51.17
2018-09-28T07:38:45.434Z,45.53
2018-09-28T07:41:14.882Z,46.73
2018-09-28T07:43:43.461Z,51.10
2018-09-28T07:46:12.229Z,56.03
2018-09-28T07:48:40.926Z,47.20
2018-09-28T07:51:09.664Z,44.17
2018-09-28T07:53:38.273Z,49.50
2018-09-28T07:56:06.934Z,49.27
2018-09-28T07:58:35.468Z,49.73
2018-09-28T08:01:04.049Z,46.43
2018-09-28T08:03:32.657Z,49.13
2018-09-28T08:06:01.693Z,47.37
2018-09-28T08:08:30.392Z,50.07
2018-09-28T08:10:59.414Z,47.30
2018-09-28T08:13:28.008Z,49.27
2018-09-28T08:15:56.663Z,51.83
2018-09-28T08:18:25.276Z,51.10
2018-09-28T08:20:54.218Z,49.77
2018-09-28T08:23:23.038Z,49.20
2018-09-28T08:25:51.580Z,46.93
2018-09-28T08:28:20.218Z,55.23
2018-09-28T08:30:48.757Z,56.00
2018-09-28T08:33:17.392Z,52.13
2018-09-28T08:35:46.338Z,52.97
2018-09-28T08:38:15.068Z,60.00
2018-09-28T08:40:44.044Z,55.70
2018-09-28T08:43:12.660Z,52.50
2018-09-28T08:45:41.225Z,47.03
2018-09-28T08:48:09.788Z,48.97
2018-09-28T08:50:38.478Z,48.40
2018-09-28T08:53:07.717Z,48.67
2018-09-28T08:55:36.280Z,50.30
2018-09-28T08:58:04.877Z,46.57
2018-09-28T09:00:33.449Z,50.23
2018-09-28T09:03:02.326Z,55.03
2018-09-28T09:05:30.991Z,51.90
2018-09-28T09:07:59.617Z,50.20
2018-09-28T09:10:29.655Z,47.93
2018-09-28T09:12:58.409Z,53.90
2018-09-28T09:15:27.233Z,45.37
2018-09-28T09:17:56.000Z,46.30
2018-09-28T09:20:24.753Z,45.40
2018-09-28T09:22:53.591Z,41.67
2018-09-28T09:25:22.548Z,38.50
2018-09-28T09:27:51.266Z,38.10
2018-09-28T09:30:20.234Z,34.03
2018-09-28T09:32:49.179Z,31.07
2018-09-28T09:35:17.785Z,30.50
2018-09-28T09:37:46.747Z,27.97
2018-09-28T09:40:15.712Z,26.80
2018-09-28T09:42:44.258Z,20.93
2018-09-28T09:45:13.214Z,22.17
2018-09-28T09:47:41.917Z,25.30
2018-09-28T09:50:10.479Z,23.37
2018-09-28T09:52:39.599Z,21.03
2018-09-28T09:55:08.901Z,16.93
2018-09-28T09:57:37.535Z,17.93
2018-09-28T10:00:06.589Z,18.23
2018-09-28T10:02:40.667Z,15.17
2018-09-28T10:05:09.275Z,14.37
2018-09-28T10:07:38.344Z,14.63
2018-09-28T10:10:07.500Z,15.10
2018-09-28T10:12:36.642Z,14.27
2018-09-28T10:15:06.019Z,20.57
2018-09-28T10:17:34.687Z,20.57
2018-09-28T10:20:03.457Z,21.63
2018-09-28T10:22:32.168Z,19.80
2018-09-28T10:25:00.772Z,23.47
2018-09-28T10:27:29.525Z,24.97
2018-09-28T10:29:59.020Z,24.20
2018-09-28T10:32:27.628Z,23.73
2018-09-28T10:34:57.130Z,23.77
2018-09-28T10:37:25.935Z,23.57
2018-09-28T10:39:54.925Z,25.30
2018-09-28T10:42:23.512Z,24.83
2018-09-28T10:44:52.200Z,28.23
2018-09-28T10:47:20.745Z,22.10
2018-09-28T10:49:50.912Z,23.20
2018-09-28T10:52:20.315Z,24.27
2018-09-28T10:54:49.654Z,22.00
2018-09-28T10:57:18.953Z,21.30
2018-09-28T10:59:47.510Z,21.83
2018-09-28T11:02:16.077Z,19.53
2018-09-28T11:04:45.194Z,16.27
2018-09-28T11:07:13.786Z,17.13
2018-09-28T11:09:42.524Z,14.57
2018-09-28T11:12:11.292Z,16.83
2018-09-28T11:14:40.573Z,19.73
2018-09-28T11:17:09.245Z,16.97
2018-09-28T11:19:38.455Z,11.73
2018-09-28T11:22:07.319Z,15.13
2018-09-28T11:24:36.317Z,13.57
2018-09-28T11:27:04.957Z,11.47
2018-09-28T11:29:34.280Z,15.63
2018-09-28T11:32:04.046Z,11.77
2018-09-28T11:34:33.219Z,12.73
2018-09-28T11:37:02.274Z,11.80
2018-09-28T11:39:32.291Z,13.80
2018-09-28T11:42:01.157Z,11.30
2018-09-28T11:44:30.577Z,13.37
2018-09-28T11:46:59.192Z,12.43
2018-09-28T11:49:28.288Z,14.37
2018-09-28T11:51:57.008Z,14.83
2018-09-28T11:54:26.275Z,11.40
2018-09-28T11:56:55.411Z,15.93
2018-09-28T11:59:24.308Z,9.77
2018-09-28T12:01:53.106Z,9.97
2018-09-28T12:04:22.629Z,13.07
2018-09-28T12:06:51.788Z,13.23
2018-09-28T12:09:20.983Z,15.53
2018-09-28T12:11:49.611Z,14.07
2018-09-28T12:14:18.241Z,10.50
2018-09-28T12:16:47.246Z,12.73
2018-09-28T12:19:15.913Z,12.97
2018-09-28T12:21:44.640Z,10.73
2018-09-28T12:24:13.289Z,10.03
2018-09-28T12:26:41.813Z,12.37
2018-09-28T12:29:10.414Z,12.43
2018-09-28T12:31:39.093Z,10.13
2018-09-28T12:34:07.664Z,11.37
2018-09-28T12:36:36.284Z,12.97
2018-09-28T12:39:06.409Z,13.63
2018-09-28T12:41:35.059Z,11.43
2018-09-28T12:44:03.897Z,11.47
2018-09-28T12:46:32.497Z,11.73
2018-09-28T12:49:01.807Z,15.67
2018-09-28T12:51:30.428Z,11.97
2018-09-28T12:53:59.313Z,12.60
2018-09-28T12:56:28.392Z,11.57
2018-09-28T12:58:56.942Z,14.80
2018-09-28T13:01:25.618Z,12.17
2018-09-28T13:03:55.015Z,15.20
2018-09-28T13:06:23.666Z,12.37
2018-09-28T13:08:52.284Z,11.10
2018-09-28T13:11:20.830Z,8.17
2018-09-28T13:13:49.460Z,8.77
2018-09-28T13:16:18.009Z,8.60
2018-09-28T13:18:47.406Z,10.27
2018-09-28T13:21:16.050Z,11.77
2018-09-28T13:23:44.892Z,9.63
2018-09-28T13:26:13.577Z,10.97
2018-09-28T13:28:42.146Z,7.43
2018-09-28T13:31:11.209Z,14.67
2018-09-28T13:33:40.045Z,10.10
2018-09-28T13:36:09.060Z,11.13
2018-09-28T13:38:38.664Z,11.00
2018-09-28T13:41:07.227Z,9.37
2018-09-28T13:43:35.824Z,13.13
2018-09-28T13:46:04.708Z,10.20
2018-09-28T13:48:33.444Z,15.60
2018-09-28T13:51:02.262Z,10.57
2018-09-28T13:53:31.024Z,11.37
2018-09-28T13:55:59.606Z,7.33
2018-09-28T13:58:28.180Z,10.17
2018-09-28T14:00:57.045Z,9.47
2018-09-28T14:03:26.507Z,11.77
2018-09-28T14:05:55.235Z,8.27
2018-09-28T14:08:24.123Z,5.73
2018-09-28T14:10:53.025Z,11.70
2018-09-28T14:13:21.579Z,8.77
2018-09-28T14:15:50.566Z,10.40
2018-09-28T14:18:19.857Z,8.93
2018-09-28T14:20:48.748Z,12.00
2018-09-28T14:23:17.635Z,7.60
2018-09-28T14:25:46.162Z,11.17
2018-09-28T14:28:14.719Z,8.73
2018-09-28T14:30:43.487Z,11.17
2018-09-28T14:33:12.384Z,7.77
2018-09-28T14:35:41.393Z,12.47
2018-09-28T14:38:10.131Z,12.27
2018-09-28T14:40:38.937Z,10.37
2018-09-28T14:43:07.754Z,12.50
2018-09-28T14:45:37.870Z,10.33
2018-09-28T14:48:08.726Z,7.70
2018-09-28T14:50:39.406Z,8.80
2018-09-28T14:53:09.636Z,11.23
2018-09-28T14:55:40.138Z,10.30
2018-09-28T14:58:10.375Z,12.77
2018-09-28T15:00:41.176Z,10.53
2018-09-28T15:03:11.139Z,10.63
2018-09-28T15:05:41.102Z,11.87
2018-09-28T15:08:11.705Z,10.30
2018-09-28T15:10:42.814Z,12.80
2018-09-28T15:13:13.203Z,6.93
2018-09-28T15:15:44.143Z,12.10
2018-09-28T15:18:14.349Z,9.47
2018-09-28T15:20:44.781Z,10.27
2018-09-28T15:23:15.931Z,10.23
2018-09-28T15:25:46.573Z,8.57
2018-09-28T15:28:16.507Z,7.93
2018-09-28T15:30:46.817Z,10.60
2018-09-28T15:33:16.542Z,7.13
2018-09-28T15:35:47.078Z,8.53
2018-09-28T15:38:16.356Z,10.60
2018-09-28T15:40:47.096Z,9.23
2018-09-28T15:43:15.663Z,9.73
2018-09-28T15:45:44.297Z,9.27
2018-09-28T15:48:14.183Z,6.80
2018-09-28T15:50:42.904Z,9.00
2018-09-28T15:53:11.797Z,12.87
2018-09-28T15:55:40.760Z,10.40
2018-09-28T15:58:09.439Z,5.37
2018-09-28T16:00:38.455Z,8.37
2018-09-28T16:03:08.706Z,11.00
2018-09-28T16:05:38.490Z,6.13
2018-09-28T16:08:08.600Z,10.20
2018-09-28T16:10:38.516Z,6.33
2018-09-28T16:13:09.131Z,5.00
2018-09-28T16:15:39.976Z,10.47
2018-09-28T16:18:10.350Z,5.60
2018-09-28T16:20:40.510Z,7.67
2018-09-28T16:23:10.766Z,8.03
2018-09-28T16:25:41.391Z,5.80
2018-09-28T16:28:10.515Z,7.50
2018-09-28T16:30:41.711Z,5.43
2018-09-28T16:33:11.241Z,9.20
2018-09-28T16:35:41.659Z,9.43
2018-09-28T16:38:11.609Z,6.73
2018-09-28T16:40:40.961Z,6.50
2018-09-28T16:43:10.241Z,4.30
2018-09-28T16:45:39.954Z,3.60
2018-09-28T16:48:08.560Z,4.57
2018-09-28T16:50:37.231Z,6.00
2018-09-28T16:53:06.033Z,6.30
2018-09-28T16:55:34.941Z,5.43
2018-09-28T16:58:03.536Z,5.93
2018-09-28T17:00:32.865Z,5.40
2018-09-28T17:03:01.681Z,7.97
2018-09-28T17:05:31.398Z,3.93
2018-09-28T17:08:00.063Z,4.90
2018-09-28T17:10:29.372Z,5.60
2018-09-28T17:12:58.042Z,5.47
2018-09-28T17:15:27.876Z,6.57
2018-09-28T17:17:56.781Z,6.67
2018-09-28T17:20:26.402Z,5.77
2018-09-28T17:22:55.046Z,6.73
2018-09-28T17:25:25.609Z,7.33
2018-09-28T17:27:54.720Z,6.30
2018-09-28T17:30:23.579Z,4.17
2018-09-28T17:32:52.284Z,5.70
2018-09-28T17:35:21.012Z,6.10
2018-09-28T17:37:49.706Z,7.30
2018-09-28T17:40:18.601Z,8.07
2018-09-28T17:42:47.215Z,7.63
2018-09-28T17:45:16.141Z,4.37
2018-09-28T17:47:44.947Z,5.60
2018-09-28T17:50:13.564Z,6.40
2018-09-28T17:52:42.548Z,5.43
2018-09-28T17:55:11.436Z,8.63
2018-09-28T17:57:40.668Z,3.47
2018-09-28T18:00:10.753Z,6.30
2018-09-28T18:02:39.557Z,3.63
2018-09-28T18:05:08.564Z,8.90
2018-09-28T18:07:37.208Z,5.30
2018-09-28T18:10:05.978Z,11.20
2018-09-28T18:12:34.706Z,8.33
2018-09-28T18:15:03.531Z,5.70
2018-09-28T18:17:32.196Z,6.73
2018-09-28T18:20:00.864Z,7.47
2018-09-28T18:22:30.643Z,6.43
2018-09-28T18:25:00.272Z,5.03
2018-09-28T18:27:29.163Z,5.77
2018-09-28T18:29:58.495Z,8.57
2018-09-28T18:32:28.245Z,5.07
2018-09-28T18:34:57.174Z,4.80
2018-09-28T18:37:25.817Z,6.90
2018-09-28T18:39:55.233Z,5.27
2018-09-28T18:42:23.982Z,5.97
2018-09-28T18:44:53.156Z,9.30
2018-09-28T18:47:22.014Z,5.50
2018-09-28T18:49:51.166Z,5.43
2018-09-28T18:52:20.001Z,9.37
2018-09-28T18:54:48.713Z,4.40
2018-09-28T18:57:19.402Z,8.37
2018-09-28T18:59:48.399Z,7.17
2018-09-28T19:02:20.707Z,7.00
2018-09-28T19:04:50.934Z,8.20
2018-09-28T19:07:21.303Z,4.87
2018-09-28T19:09:52.140Z,3.50
2018-09-28T19:12:23.068Z,4.77
2018-09-28T19:14:53.511Z,5.30
2018-09-28T19:17:22.760Z,4.77
2018-09-28T19:19:53.529Z,6.43
2018-09-28T19:22:24.294Z,8.17
2018-09-28T19:24:54.967Z,5.83
2018-09-28T19:27:25.157Z,8.47
2018-09-28T19:29:55.605Z,5.80
2018-09-28T19:32:27.560Z,8.37
2018-09-28T19:34:58.710Z,6.77
2018-09-28T19:37:29.513Z,5.07
2018-09-28T19:40:00.040Z,5.10
2018-09-28T19:42:30.363Z,7.63
2018-09-28T19:45:00.699Z,8.77
2018-09-28T19:47:29.227Z,6.87
2018-09-28T19:49:59.604Z,5.33
2018-09-28T19:52:30.076Z,4.87
2018-09-28T19:54:59.551Z,3.70
2018-09-28T19:57:30.809Z,5.10
2018-09-28T20:00:01.350Z,7.17
2018-09-28T20:02:33.124Z,7.77
2018-09-28T20:05:02.996Z,6.77
2018-09-28T20:07:33.743Z,4.00
2018-09-28T20:10:03.404Z,6.80
2018-09-28T20:12:33.665Z,5.57
2018-09-28T20:15:03.179Z,4.47
2018-09-28T20:17:33.294Z,8.23
2018-09-28T20:20:02.565Z,6.00
2018-09-28T20:22:32.497Z,4.93
2018-09-28T20:25:02.634Z,5.77
2018-09-28T20:27:33.608Z,6.80
2018-09-28T20:30:04.461Z,6.53
2018-09-28T20:32:34.944Z,3.47
2018-09-28T20:35:06.109Z,6.87
2018-09-28T20:37:37.211Z,8.00
2018-09-28T20:40:07.630Z,8.43
2018-09-28T20:42:37.565Z,3.43
2018-09-28T20:45:07.745Z,3.47
2018-09-28T20:47:38.976Z,6.10
2018-09-28T20:50:08.795Z,4.43
2018-09-28T20:52:39.313Z,7.70
2018-09-28T20:55:10.411Z,3.50
2018-09-28T20:57:40.297Z,6.67
2018-09-28T21:00:10.417Z,6.27
2018-09-28T21:02:40.900Z,8.33
2018-09-28T21:05:10.955Z,5.60
2018-09-28T21:07:42.616Z,5.03
2018-09-28T21:10:13.215Z,5.20
2018-09-28T21:12:43.714Z,5.03
2018-09-28T21:15:13.981Z,7.40
2018-09-28T21:17:44.182Z,6.77
2018-09-28T21:20:14.416Z,9.93
2018-09-28T21:22:44.493Z,8.30
2018-09-28T21:25:15.255Z,5.93
2018-09-28T21:27:45.738Z,6.93
2018-09-28T21:30:14.333Z,4.70
2018-09-28T21:32:45.075Z,10.67
2018-09-28T21:35:15.894Z,3.37
2018-09-28T21:37:46.800Z,4.43
2018-09-28T21:40:16.617Z,4.83
2018-09-28T21:42:46.120Z,7.67
2018-09-28T21:45:15.141Z,7.33
2018-09-28T21:47:44.626Z,4.07
2018-09-28T21:50:13.691Z,6.57
2018-09-28T21:52:43.253Z,4.50
2018-09-28T21:55:11.904Z,5.80
2018-09-28T21:57:40.869Z,5.20
2018-09-28T22:00:09.645Z,4.00
2018-09-28T22:02:38.498Z,6.37
2018-09-28T22:05:07.263Z,8.67
2018-09-28T22:07:36.805Z,6.33
2018-09-28T22:10:06.030Z,5.63
2018-09-28T22:12:35.942Z,6.67
2018-09-28T22:15:04.771Z,5.43
2018-09-28T22:17:34.361Z,9.37
2018-09-28T22:20:06.081Z,4.80
2018-09-28T22:22:34.730Z,5.70
2018-09-28T22:25:03.502Z,5.47
2018-09-28T22:27:33.041Z,6.03
2018-09-28T22:30:02.750Z,8.33
2018-09-28T22:32:32.321Z,8.07
2018-09-28T22:35:01.724Z,7.07
2018-09-28T22:37:30.801Z,2.93
2018-09-28T22:39:59.837Z,9.60
2018-09-28T22:42:29.212Z,11.03
2018-09-28T22:45:00.074Z,7.10
2018-09-28T22:47:29.065Z,8.93
2018-09-28T22:49:58.508Z,4.87
2018-09-28T22:52:27.229Z,7.80
2018-09-28T22:54:56.026Z,5.73
2018-09-28T22:57:26.066Z,5.30
2018-09-28T22:59:55.627Z,6.80
2018-09-28T23:02:25.475Z,8.63
2018-09-28T23:04:55.203Z,7.77
2018-09-28T23:07:24.833Z,8.80
2018-09-28T23:09:54.552Z,6.13
2018-09-28T23:12:23.762Z,5.10
2018-09-28T23:14:52.551Z,6.73
2018-09-28T23:17:21.823Z,6.40
2018-09-28T23:19:50.558Z,7.33
2018-09-28T23:22:20.314Z,6.13
2018-09-28T23:24:49.104Z,10.67
2018-09-28T23:27:17.896Z,7.17
2018-09-28T23:29:46.767Z,4.33
2018-09-28T23:32:16.038Z,6.87
2018-09-28T23:34:45.031Z,5.73
2018-09-28T23:37:14.373Z,9.37
2018-09-28T23:39:44.114Z,5.27
2018-09-28T23:42:13.267Z,4.57
2018-09-28T23:44:42.024Z,8.37
2018-09-28T23:47:11.470Z,8.07
2018-09-28T23:49:41.705Z,6.83
2018-09-28T23:52:11.566Z,5.97
2018-09-28T23:54:40.817Z,5.77
2018-09-28T23:57:10.020Z,11.63
2018-09-28T23:59:39.227Z,6.70
